Time;durP1;ratioP1;P1;durP2;ratioP2;P2;SDS_P1;SDS_P2;PMS_P1;PMS_P2;Temp;Humidity;BMP_temperature;BMP_pressure;BME280_temperature;BME280_humidity;BME280_pressure;Samples;Min_cycle;Max_cycle;Signal;HPM_P1;HPM_P2
2021/09/15 00:02:05;;;;;;;;;14.50;13.00;;;;;23.26;74.12;100760.19;4893003;29;45323;-53
2021/09/15 00:04:31;;;;;;;;;12.50;12.25;;;;;23.25;74.12;100752.31;4895259;29;45417;-56
2021/09/15 00:06:56;;;;;;;;;11.00;11.00;;;;;23.23;73.74;100755.16;4892167;29;45500;-53
2021/09/15 00:09:22;;;;;;;;;10.50;10.50;;;;;23.21;73.56;100751.78;4894679;29;45387;-53
2021/09/15 00:11:47;;;;;;;;;13.00;11.75;;;;;23.20;73.42;100751.97;4896865;29;45255;-52
2021/09/15 00:14:13;;;;;;;;;10.25;10.25;;;;;23.20;73.29;100758.19;4895721;29;45605;-53
2021/09/15 00:16:38;;;;;;;;;13.00;11.00;;;;;23.18;73.38;100740.56;4897210;29;45867;-54
2021/09/15 00:19:04;;;;;;;;;11.75;10.00;;;;;23.16;73.49;100739.91;4896560;29;45541;-54
2021/09/15 00:21:30;;;;;;;;;11.75;10.50;;;;;23.14;73.78;100740.06;4896959;29;45466;-55
2021/09/15 00:23:55;;;;;;;;;13.50;9.25;;;;;23.13;74.07;100741.06;4895540;29;45463;-54
2021/09/15 00:26:21;;;;;;;;;10.00;9.00;;;;;23.12;73.55;100740.22;4896754;29;45526;-54
2021/09/15 00:28:46;;;;;;;;;9.00;8.25;;;;;23.12;73.65;100736.72;4896217;29;45401;-50
2021/09/15 00:31:12;;;;;;;;;12.50;10.00;;;;;23.11;73.57;100735.88;4896973;29;45445;-54
2021/09/15 00:33:37;;;;;;;;;9.00;7.75;;;;;23.11;73.03;100735.88;4897282;28;45564;-50
2021/09/15 00:36:03;;;;;;;;;11.75;7.75;;;;;23.10;73.10;100734.19;4896211;29;45378;-52
2021/09/15 00:38:28;;;;;;;;;10.75;10.25;;;;;23.09;73.38;100731.69;4895807;29;45325;-51
2021/09/15 00:40:56;;;;;;;;;10.75;7.75;;;;;23.07;73.06;100729.19;4897101;29;45277;-49
2021/09/15 00:43:22;;;;;;;;;7.00;6.25;;;;;23.03;73.37;100727.84;4895597;28;45473;-50
2021/09/15 00:45:48;;;;;;;;;7.00;7.00;;;;;22.99;72.62;100725.69;4895436;29;45931;-54
2021/09/15 00:48:13;;;;;;;;;11.25;8.50;;;;;22.99;72.91;100720.31;4896638;29;45448;-52
2021/09/15 00:50:40;;;;;;;;;7.00;6.00;;;;;23.00;72.59;100713.94;4894911;29;45385;-53
2021/09/15 00:53:07;;;;;;;;;4.75;4.50;;;;;23.00;72.98;100714.75;4895445;29;45710;-53
2021/09/15 00:55:33;;;;;;;;;5.25;5.25;;;;;22.99;72.29;100720.31;4898793;29;45337;-53
2021/09/15 00:57:58;;;;;;;;;8.25;6.50;;;;;22.96;72.03;100724.16;4893496;29;45510;-55
2021/09/15 01:00:24;;;;;;;;;7.75;6.75;;;;;;;;4893871;29;45372;-48
2021/09/15 01:02:49;;;;;;;;;5.00;4.50;;;;;22.93;72.71;100724.50;4893944;29;45636;-56
2021/09/15 01:05:15;;;;;;;;;8.75;5.75;;;;;22.90;72.19;100714.09;4893455;29;45487;-53
2021/09/15 01:07:41;;;;;;;;;7.00;5.00;;;;;22.90;72.68;100724.00;4893558;29;45376;-54
2021/09/15 01:10:08;;;;;;;;;9.00;6.75;;;;;22.84;72.49;100729.03;4894180;29;45420;-50
2021/09/15 01:12:34;;;;;;;;;8.25;5.75;;;;;22.82;72.68;100725.66;4896391;29;45515;-54
2021/09/15 01:14:59;;;;;;;;;2.75;2.75;;;;;22.82;72.43;100722.13;4894741;29;45455;-54
2021/09/15 01:17:25;;;;;;;;;2.50;2.50;;;;;22.82;73.05;100722.97;4895881;29;45437;-51
2021/09/15 01:19:50;;;;;;;;;5.50;5.00;;;;;22.79;72.92;100727.88;4896291;29;45426;-53
2021/09/15 01:22:16;;;;;;;;;4.75;4.75;;;;;22.79;72.44;100735.91;4893802;28;45594;-53
2021/09/15 01:24:41;;;;;;;;;4.00;3.50;;;;;22.77;72.75;100729.88;4894660;29;46118;-52
2021/09/15 01:27:07;;;;;;;;;5.50;4.00;;;;;22.76;72.11;100722.84;4897979;29;45446;-53
2021/09/15 01:29:33;;;;;;;;;4.25;3.00;;;;;22.77;72.23;100719.16;4899124;29;45528;-54
2021/09/15 01:32:03;;;;;;;;;6.00;4.00;;;;;22.75;72.38;100716.63;4897050;29;45332;-52
2021/09/15 01:34:33;;;;;;;;;8.25;7.00;;;;;22.75;72.57;100713.94;4894759;29;46286;-55
2021/09/15 01:36:59;;;;;;;;;5.50;3.25;;;;;22.75;72.23;100711.25;4896259;29;45364;-53
2021/09/15 01:39:24;;;;;;;;;4.00;4.00;;;;;22.72;72.38;100716.97;4895054;29;45427;-55
2021/09/15 01:41:50;;;;;;;;;6.00;3.50;;;;;22.70;72.48;100716.28;4898654;29;45304;-55
2021/09/15 01:44:16;;;;;;;;;5.50;3.75;;;;;22.71;72.92;100714.44;4904962;29;45469;-54
2021/09/15 01:46:41;;;;;;;;;6.25;4.75;;;;;22.71;72.73;100712.59;4905431;29;45239;-52
2021/09/15 01:49:07;;;;;;;;;4.00;4.00;;;;;22.71;72.85;100709.06;4905197;29;45368;-54
2021/09/15 01:51:32;;;;;;;;;6.75;5.00;;;;;22.69;72.89;100719.16;4905290;29;45519;-54
2021/09/15 01:53:57;;;;;;;;;6.50;4.00;;;;;22.66;72.53;100711.41;4904998;29;45364;-54
2021/09/15 01:56:23;;;;;;;;;5.00;4.00;;;;;22.65;72.86;100710.59;4889505;29;45241;-54
2021/09/15 01:58:48;;;;;;;;;4.25;4.25;;;;;22.64;72.70;100711.59;4886473;29;45538;-53
2021/09/15 02:01:14;;;;;;;;;6.25;4.50;;;;;22.62;73.22;100724.38;4886380;29;45338;-52
2021/09/15 02:03:39;;;;;;;;;6.00;5.75;;;;;22.65;72.73;100717.81;4885513;29;45467;-51
2021/09/15 02:06:05;;;;;;;;;5.00;5.00;;;;;22.65;72.35;100712.44;4895899;29;45329;-52
2021/09/15 02:08:30;;;;;;;;;5.00;5.00;;;;;22.63;72.40;100712.59;4886254;29;45299;-53
2021/09/15 02:10:56;;;;;;;;;4.75;4.75;;;;;22.62;72.77;100721.69;4886166;29;46729;-53
2021/09/15 02:13:21;;;;;;;;;6.00;5.50;;;;;22.62;72.52;100724.38;4885167;29;46611;-53
2021/09/15 02:15:47;;;;;;;;;9.50;6.00;;;;;22.60;72.44;100729.06;4885769;29;45357;-53
2021/09/15 02:18:12;;;;;;;;;6.25;5.00;;;;;22.58;72.72;100723.00;4885793;29;45520;-50
2021/09/15 02:20:39;;;;;;;;;7.25;6.00;;;;;22.56;72.66;100723.19;4903679;29;45330;-52
2021/09/15 02:23:05;;;;;;;;;5.50;4.50;;;;;22.57;72.81;100735.59;4904491;29;45379;-53
2021/09/15 02:25:30;;;;;;;;;6.50;5.25;;;;;22.61;72.97;100735.28;4904452;29;45281;-54
2021/09/15 02:27:56;;;;;;;;;5.00;4.75;;;;;22.60;73.12;100736.28;4900072;29;45478;-52
2021/09/15 02:30:21;;;;;;;;;10.25;6.00;;;;;22.61;73.04;100730.75;4885692;29;45253;-52
2021/09/15 02:32:46;;;;;;;;;7.25;6.75;;;;;22.62;72.87;100718.16;4901727;29;45553;-50
2021/09/15 02:35:12;;;;;;;;;6.75;5.25;;;;;22.61;73.14;100720.00;4895976;29;45289;-53
2021/09/15 02:37:38;;;;;;;;;6.75;6.25;;;;;22.64;73.14;100716.13;4894972;29;45378;-55
2021/09/15 02:40:05;;;;;;;;;7.25;7.25;;;;;22.65;72.89;100717.81;4895191;29;45316;-53
2021/09/15 02:42:30;;;;;;;;;7.75;6.50;;;;;22.65;73.03;100718.63;4892889;29;45350;-52
2021/09/15 02:44:56;;;;;;;;;9.00;7.25;;;;;22.65;72.84;100726.69;4894723;29;45322;-54
2021/09/15 02:47:21;;;;;;;;;8.75;7.25;;;;;22.64;72.90;100738.44;4894468;29;45309;-54
2021/09/15 02:49:47;;;;;;;;;9.75;9.00;;;;;22.64;73.07;100733.06;4895993;29;45448;-54
2021/09/15 02:52:12;;;;;;;;;9.25;7.75;;;;;22.63;73.22;100736.78;4896977;29;46024;-52
2021/09/15 02:54:38;;;;;;;;;10.75;9.00;;;;;22.63;73.70;100738.63;4895681;29;45990;-54
2021/09/15 02:57:03;;;;;;;;;9.75;9.00;;;;;22.62;73.37;100739.63;4879201;29;45544;-50
2021/09/15 02:59:29;;;;;;;;;10.25;9.50;;;;;22.61;73.89;100736.13;4897884;29;45541;-52
2021/09/15 03:01:54;;;;;;;;;10.25;10.00;;;;;22.60;74.07;100730.91;4893054;29;45510;-53
2021/09/15 03:04:20;;;;;;;;;10.75;9.25;;;;;22.59;73.83;100732.72;4898002;29;45421;-53
2021/09/15 03:06:45;;;;;;;;;10.50;10.25;;;;;22.59;74.30;100732.72;4893438;29;45451;-53
2021/09/15 03:09:11;;;;;;;;;12.50;9.75;;;;;22.58;74.33;100731.06;4894841;29;45590;-53
2021/09/15 03:11:36;;;;;;;;;12.25;9.00;;;;;22.58;74.27;100726.53;4893191;29;45923;-53
2021/09/15 03:14:02;;;;;;;;;12.00;9.00;;;;;22.58;74.13;100728.38;4896643;29;45379;-53
2021/09/15 03:16:27;;;;;;;;;9.75;9.75;;;;;22.57;74.43;100718.66;4897303;29;45439;-54
2021/09/15 03:18:53;;;;;;;;;10.00;8.75;;;;;22.55;74.68;100721.50;4894894;29;45616;-53
2021/09/15 03:21:18;;;;;;;;;9.25;8.75;;;;;22.54;74.63;100722.53;4894442;29;45433;-54
2021/09/15 03:23:44;;;;;;;;;9.50;9.00;;;;;22.51;74.45;100725.56;4896901;29;45332;-54
2021/09/15 03:26:09;;;;;;;;;12.25;8.00;;;;;22.49;74.73;100724.03;4895611;29;45326;-52
2021/09/15 03:28:35;;;;;;;;;9.25;9.25;;;;;22.50;74.56;100725.69;4895335;29;45329;-51
2021/09/15 03:31:00;;;;;;;;;12.75;7.75;;;;;22.50;74.53;100723.84;4894710;29;45592;-51
2021/09/15 03:33:26;;;;;;;;;8.25;8.25;;;;;22.50;74.57;100720.34;4895599;29;45329;-52
2021/09/15 03:35:51;;;;;;;;;9.50;8.25;;;;;22.51;74.56;100725.56;4894999;29;45306;-54
2021/09/15 03:38:17;;;;;;;;;9.00;7.50;;;;;22.51;74.48;100725.56;4893359;29;45330;-50
2021/09/15 03:40:43;;;;;;;;;9.50;8.25;;;;;22.51;74.69;100728.25;4893652;29;45572;-54
2021/09/15 03:43:08;;;;;;;;;9.50;8.00;;;;;22.52;75.10;100723.72;4894534;29;45282;-52
2021/09/15 03:45:34;;;;;;;;;12.00;8.50;;;;;22.52;74.49;100726.41;4898139;29;45283;-51
2021/09/15 03:47:59;;;;;;;;;12.75;9.00;;;;;22.51;74.87;100730.06;4898437;29;45398;-53
2021/09/15 03:50:25;;;;;;;;;10.25;8.00;;;;;22.47;75.34;100736.78;4898651;29;45624;-53
2021/09/15 03:52:50;;;;;;;;;9.50;6.75;;;;;22.47;75.41;100737.63;4897334;29;45789;-54
2021/09/15 03:55:16;;;;;;;;;7.75;6.75;;;;;22.45;74.86;100738.81;4900511;29;45259;-54
2021/09/15 03:57:41;;;;;;;;;9.00;8.00;;;;;22.45;75.51;100736.97;4896971;29;45178;-53
2021/09/15 04:00:07;;;;;;;;;10.25;8.50;;;;;22.48;74.78;100738.47;4896347;29;45385;-52
2021/09/15 04:02:33;;;;;;;;;9.00;9.00;;;;;22.48;75.38;100739.28;4897415;29;45289;-53
2021/09/15 04:04:58;;;;;;;;;8.25;7.25;;;;;22.47;74.79;100742.16;4896917;29;45200;-54
2021/09/15 04:07:23;;;;;;;;;9.50;7.25;;;;;22.46;75.12;100745.84;4899306;29;45507;-53
2021/09/15 04:09:49;;;;;;;;;10.75;8.00;;;;;22.46;75.09;100744.00;4897685;29;45382;-49
2021/09/15 04:12:14;;;;;;;;;9.50;6.00;;;;;22.45;75.04;100738.81;4895475;29;45413;-54
2021/09/15 04:14:41;;;;;;;;;7.25;7.00;;;;;22.42;74.40;100739.13;4896541;29;45293;-55
2021/09/15 04:17:07;;;;;;;;;13.25;9.75;;;;;22.41;75.19;100738.28;4897001;29;45513;-52
2021/09/15 04:19:32;;;;;;;;;8.00;8.00;;;;;22.43;74.96;100740.78;4897544;29;45346;-54
2021/09/15 04:21:58;;;;;;;;;7.75;6.75;;;;;22.43;74.54;100743.47;4897972;29;45292;-54
2021/09/15 04:31:12;;;;;;;;;11.00;8.00;;;;;22.43;74.54;100738.13;4898319;29;45309;-51
2021/09/15 04:32:37;;;;;;;;;6.25;6.25;;;;;22.44;74.79;100740.66;4894993;29;45316;-53
2021/09/15 04:35:03;;;;;;;;;6.50;6.50;;;;;22.42;75.34;100737.28;4896156;29;45627;-53
2021/09/15 04:37:28;;;;;;;;;6.50;4.75;;;;;22.42;74.93;100744.50;4897173;29;45532;-56
2021/09/15 04:39:54;;;;;;;;;14.25;10.75;;;;;22.40;75.24;100731.25;4895093;29;45334;-50
2021/09/15 04:42:19;;;;;;;;;8.00;7.50;;;;;22.39;75.13;100740.31;4896679;29;45166;-53
2021/09/15 04:44:45;;;;;;;;;9.25;8.00;;;;;22.40;75.17;100741.16;4896459;29;45260;-53
2021/09/15 04:47:10;;;;;;;;;10.00;9.00;;;;;22.39;74.94;100744.84;4896997;29;45482;-53
2021/09/15 04:49:36;;;;;;;;;8.75;8.75;;;;;22.40;75.27;100744.66;4897329;29;45387;-52
2021/09/15 04:52:01;;;;;;;;;10.00;7.00;;;;;22.38;75.13;100738.63;4897581;29;45610;-54
2021/09/15 04:54:27;;;;;;;;;11.00;10.50;;;;;22.41;74.80;100742.81;4898133;29;45531;-53
2021/09/15 04:56:52;;;;;;;;;8.75;8.25;;;;;22.40;75.13;100744.66;4899509;29;45367;-52
2021/09/15 04:59:18;;;;;;;;;10.50;9.50;;;;;22.40;75.08;100741.97;4895212;29;46070;-54
2021/09/15 05:01:45;;;;;;;;;10.00;8.50;;;;;22.37;74.76;100744.19;4895594;29;45448;-54
2021/09/15 05:04:11;;;;;;;;;10.25;9.75;;;;;22.35;75.27;100744.31;4895722;29;45480;-53
2021/09/15 05:06:36;;;;;;;;;7.75;7.75;;;;;22.35;74.56;100747.00;4898904;29;45459;-53
2021/09/15 05:09:02;;;;;;;;;7.50;7.50;;;;;22.36;74.34;100748.72;4895443;29;45441;-53
2021/09/15 05:11:27;;;;;;;;;12.00;9.00;;;;;22.37;74.94;100750.38;4897785;29;45300;-55
2021/09/15 05:13:53;;;;;;;;;9.75;8.00;;;;;22.38;74.71;100749.38;4896893;29;45280;-53
2021/09/15 05:16:18;;;;;;;;;9.00;7.50;;;;;22.38;74.98;100753.91;4895191;29;45564;-54
2021/09/15 05:18:44;;;;;;;;;9.50;7.50;;;;;22.35;75.35;100752.38;4895939;29;45579;-55
2021/09/15 05:21:09;;;;;;;;;9.25;7.00;;;;;22.37;74.66;100749.53;4897324;29;45356;-52
2021/09/15 05:23:35;;;;;;;;;8.75;7.25;;;;;22.36;74.17;100753.25;4897232;29;45251;-52
2021/09/15 05:26:00;;;;;;;;;8.00;8.00;;;;;22.36;74.15;100750.56;4898933;29;45343;-50
2021/09/15 05:28:26;;;;;;;;;7.75;7.75;;;;;22.37;74.62;100753.06;4895510;29;46246;-53
2021/09/15 05:30:51;;;;;;;;;8.00;7.75;;;;;22.37;74.02;100754.91;4896231;29;45337;-52
2021/09/15 05:33:17;;;;;;;;;11.25;8.75;;;;;22.36;73.93;100758.59;4896322;29;45468;-49
2021/09/15 05:35:42;;;;;;;;;9.25;8.50;;;;;22.37;74.06;100761.13;4897124;29;45327;-50
2021/09/15 05:38:08;;;;;;;;;11.25;8.50;;;;;22.38;74.38;100762.78;4898604;29;46147;-49
2021/09/15 05:40:33;;;;;;;;;7.00;7.00;;;;;22.40;74.36;100763.47;4894146;29;45158;-50
2021/09/15 05:42:59;;;;;;;;;10.50;8.00;;;;;22.40;74.03;100759.94;4896934;28;45307;-48
2021/09/15 05:45:24;;;;;;;;;12.00;8.25;;;;;22.38;73.95;100760.09;4897106;29;45397;-53
2021/09/15 05:47:50;;;;;;;;;13.25;9.75;;;;;22.37;74.02;100766.47;4896965;29;46184;-52
2021/09/15 05:50:15;;;;;;;;;20.75;19.75;;;;;22.37;73.91;100768.34;4898702;29;45302;-49
2021/09/15 05:52:41;;;;;;;;;17.00;12.75;;;;;22.37;73.92;100763.81;4894602;28;45479;-52
2021/09/15 05:55:07;;;;;;;;;10.00;7.75;;;;;22.37;74.13;100771.00;4897750;29;45466;-55
2021/09/15 05:57:33;;;;;;;;;10.75;10.00;;;;;22.35;74.11;100778.38;4896034;29;45536;-52
2021/09/15 05:59:58;;;;;;;;;6.25;6.25;;;;;22.33;73.86;100781.22;4895990;29;45330;-53
2021/09/15 06:02:24;;;;;;;;;6.00;5.25;;;;;22.33;73.85;100780.38;4894493;29;45297;-52
2021/09/15 06:04:49;;;;;;;;;8.75;8.00;;;;;22.34;74.07;100782.06;4895395;29;45322;-50
2021/09/15 06:07:15;;;;;;;;;9.75;7.00;;;;;22.35;74.48;100781.91;4893362;29;45667;-51
2021/09/15 06:09:40;;;;;;;;;9.00;8.25;;;;;22.36;74.25;100783.59;4895592;29;45403;-53
2021/09/15 06:12:06;;;;;;;;;11.50;8.50;;;;;22.37;74.43;100789.81;4894602;29;45235;-53
2021/09/15 06:14:32;;;;;;;;;9.25;8.25;;;;;22.38;74.68;100786.94;4894123;29;45399;-51
2021/09/15 06:16:57;;;;;;;;;7.75;7.25;;;;;22.37;74.06;100787.97;4895357;29;45357;-54
2021/09/15 06:19:23;;;;;;;;;43.50;35.00;;;;;22.34;74.48;100787.44;4895852;29;45347;-49
2021/09/15 06:21:48;;;;;;;;;18.50;14.75;;;;;22.33;74.30;100785.75;4894394;29;46302;-49
2021/09/15 06:24:14;;;;;;;;;8.50;8.00;;;;;22.35;74.55;100791.78;4895622;29;45434;-53
2021/09/15 06:26:40;;;;;;;;;10.00;8.00;;;;;22.32;74.19;100797.50;4893470;29;45515;-51
2021/09/15 06:29:06;;;;;;;;;7.50;7.50;;;;;22.32;74.71;100792.97;4894403;29;45508;-52
2021/09/15 06:31:32;;;;;;;;;10.75;9.00;;;;;22.33;74.41;100800.00;4894856;28;45461;-51
2021/09/15 06:33:57;;;;;;;;;7.25;7.25;;;;;22.34;74.72;100799.00;4896012;29;45471;-51
2021/09/15 06:36:23;;;;;;;;;8.25;6.75;;;;;22.36;74.88;100799.69;4897508;29;45591;-52
2021/09/15 06:38:48;;;;;;;;;7.00;7.00;;;;;22.39;74.33;100803.88;4897282;29;45464;-53
2021/09/15 06:41:15;;;;;;;;;10.00;9.25;;;;;22.39;74.46;100803.88;4893729;29;45494;-49
2021/09/15 06:43:41;;;;;;;;;12.25;10.00;;;;;22.39;74.51;100802.03;4897331;28;45236;-50
2021/09/15 06:46:06;;;;;;;;;10.75;9.00;;;;;22.39;74.63;100796.69;4896539;29;45351;-51
2021/09/15 06:48:32;;;;;;;;;9.50;9.50;;;;;22.41;74.62;100807.25;4893120;29;45241;-57
2021/09/15 06:50:57;;;;;;;;;13.00;9.50;;;;;22.42;74.44;100806.22;4895425;29;45214;-52
2021/09/15 06:53:23;;;;;;;;;10.50;9.75;;;;;22.42;74.60;100804.38;4893995;29;45530;-52
2021/09/15 06:55:48;;;;;;;;;10.50;9.75;;;;;22.43;74.70;100805.22;4893776;29;45949;-54
2021/09/15 06:58:14;;;;;;;;;9.75;8.25;;;;;22.43;74.70;100802.53;4897591;29;45557;-52
2021/09/15 07:00:40;;;;;;;;;9.25;7.50;;;;;22.43;74.41;100805.22;4897701;29;45387;-51
2021/09/15 07:03:05;;;;;;;;;10.00;8.25;;;;;22.44;74.83;100812.28;4896197;29;45365;-54
2021/09/15 07:05:31;;;;;;;;;8.25;8.25;;;;;22.41;74.41;100808.06;4894375;29;45322;-49
2021/09/15 07:07:57;;;;;;;;;14.00;10.75;;;;;22.41;74.97;100808.06;4895385;29;45437;-57
2021/09/15 07:10:23;;;;;;;;;12.75;11.00;;;;;22.42;74.94;100816.97;4894327;29;45433;-58
2021/09/15 07:12:49;;;;;;;;;14.50;9.50;;;;;22.43;74.69;100808.75;4895658;28;45802;-59
2021/09/15 07:15:15;;;;;;;;;12.50;10.75;;;;;22.44;75.13;100818.50;4895428;29;45229;-59
2021/09/15 07:17:42;;;;;;;;;10.25;10.00;;;;;22.42;75.63;100817.81;4898732;29;45165;-59
2021/09/15 07:20:08;;;;;;;;;10.00;9.25;;;;;22.46;75.31;100821.00;4896115;29;45686;-59
2021/09/15 07:22:34;;;;;;;;;13.75;10.75;;;;;22.48;75.34;100827.88;4903536;29;45588;-59
2021/09/15 07:24:59;;;;;;;;;11.00;9.75;;;;;22.50;75.05;100827.72;4896072;28;46560;-59
2021/09/15 07:27:25;;;;;;;;;11.00;8.00;;;;;22.48;74.90;100835.94;4899968;29;45499;-59
2021/09/15 07:29:51;;;;;;;;;8.75;7.25;;;;;22.47;74.78;100839.63;4899727;28;45522;-59
2021/09/15 07:32:16;;;;;;;;;10.75;9.00;;;;;22.46;74.97;100837.97;4897882;29;45442;-59
2021/09/15 07:34:44;;;;;;;;;11.25;11.25;;;;;22.47;74.84;100839.63;4898685;29;46053;-59
2021/09/15 07:37:14;;;;;;;;;11.25;10.00;;;;;22.46;74.93;100840.66;4898786;29;45312;-59
2021/09/15 07:39:40;;;;;;;;;12.00;8.50;;;;;22.44;74.67;100845.34;4898601;29;45458;-59
2021/09/15 07:42:07;;;;;;;;;12.50;11.75;;;;;22.44;75.48;100844.50;4897079;29;45332;-59
2021/09/15 07:44:33;;;;;;;;;12.50;10.00;;;;;22.44;74.98;100839.97;4899930;29;45473;-59
2021/09/15 07:46:59;;;;;;;;;11.25;11.00;;;;;22.45;75.36;100835.44;4895458;29;45363;-58
2021/09/15 07:49:25;;;;;;;;;12.00;11.25;;;;;22.47;74.99;100841.47;4898482;29;45349;-58
2021/09/15 07:51:50;;;;;;;;;13.50;10.00;;;;;22.46;75.11;100840.66;4897999;29;45242;-58
2021/09/15 07:54:16;;;;;;;;;13.50;11.00;;;;;22.48;75.50;100835.09;4895656;29;45547;-58
2021/09/15 07:56:41;;;;;;;;;13.75;11.75;;;;;22.47;75.37;100839.63;4897521;29;45412;-59
2021/09/15 07:59:07;;;;;;;;;14.50;11.50;;;;;22.47;75.28;100834.25;4898949;29;45142;-59
2021/09/15 08:01:32;;;;;;;;;11.75;10.50;;;;;22.48;75.07;100841.31;4896835;29;45413;-59
2021/09/15 08:03:57;;;;;;;;;10.75;9.75;;;;;22.47;74.96;100836.94;4898000;29;45301;-59
2021/09/15 08:06:23;;;;;;;;;10.00;9.00;;;;;22.50;74.72;100841.13;4898847;29;45231;-59
2021/09/15 08:08:48;;;;;;;;;12.50;11.00;;;;;22.53;75.09;100841.66;4899113;29;45288;-59
2021/09/15 08:11:14;;;;;;;;;14.75;10.00;;;;;22.55;74.58;100838.81;4897722;29;45231;-58
2021/09/15 08:13:40;;;;;;;;;13.00;11.25;;;;;22.56;74.53;100844.00;4896433;29;46165;-58
2021/09/15 08:16:07;;;;;;;;;13.50;12.75;;;;;22.58;74.88;100852.72;4896781;29;45479;-59
2021/09/15 08:18:33;;;;;;;;;13.25;12.75;;;;;22.60;74.66;100846.38;4895825;29;45483;-59
2021/09/15 08:20:59;;;;;;;;;14.25;13.25;;;;;22.65;75.01;100850.22;4902191;28;45463;-58
2021/09/15 08:23:24;;;;;;;;;14.00;12.50;;;;;22.67;74.76;100852.72;4895271;29;45521;-58
2021/09/15 08:25:50;;;;;;;;;13.50;10.75;;;;;22.70;74.80;100852.41;4896410;29;45518;-59
2021/09/15 08:28:16;;;;;;;;;12.00;11.00;;;;;22.74;74.82;100853.75;4897469;29;45445;-58
2021/09/15 08:30:42;;;;;;;;;13.75;11.00;;;;;22.78;74.51;100844.34;4894933;29;45243;-59
2021/09/15 08:33:07;;;;;;;;;15.75;12.00;;;;;22.81;74.57;100852.91;4895359;29;45316;-58
2021/09/15 08:35:32;;;;;;;;;11.75;10.25;;;;;22.83;74.65;100861.66;4895251;29;45305;-59
2021/09/15 08:37:58;;;;;;;;;12.50;12.00;;;;;22.87;74.47;100864.88;4894393;29;45328;-59
2021/09/15 08:40:24;;;;;;;;;14.50;10.00;;;;;22.87;74.38;100867.56;4897610;29;45552;-58
2021/09/15 08:42:50;;;;;;;;;14.25;14.00;;;;;22.87;74.97;100867.56;4895588;29;45973;-56
2021/09/15 08:45:15;;;;;;;;;17.00;14.00;;;;;22.87;74.23;100866.72;4896535;29;45393;-54
2021/09/15 08:47:44;;;;;;;;;12.00;11.25;;;;;22.80;74.61;100859.28;4895115;29;45457;-55
2021/09/15 08:50:11;;;;;;;;;14.50;13.00;;;;;22.76;74.91;100859.81;4896115;29;45551;-55
2021/09/15 08:52:37;;;;;;;;;11.75;11.75;;;;;22.74;74.86;100861.81;4894666;29;46252;-55
2021/09/15 08:55:04;;;;;;;;;18.00;13.00;;;;;22.71;74.69;100867.53;4897963;29;45316;-55
2021/09/15 08:57:30;;;;;;;;;16.75;13.25;;;;;22.67;74.72;100869.72;4895799;29;45422;-54
2021/09/15 08:59:56;;;;;;;;;12.25;11.50;;;;;22.65;75.04;100873.53;4894835;29;45312;-54
2021/09/15 09:02:22;;;;;;;;;18.75;17.75;;;;;22.61;75.89;100874.91;4896066;29;45571;-53
2021/09/15 09:05:01;;;;;;;;;19.25;17.00;;;;;22.55;76.27;100869.19;4895678;29;46564;-52
2021/09/15 09:07:28;;;;;;;;;40.00;33.00;;;;;22.56;76.64;100872.69;4895235;29;45337;-54
2021/09/15 09:09:56;;;;;;;;;22.50;16.50;;;;;22.59;76.94;100877.72;4895341;29;45627;-52
2021/09/15 09:12:25;;;;;;;;;15.50;13.00;;;;;22.61;77.05;100875.75;4894526;29;45409;-53
2021/09/15 09:14:51;;;;;;;;;19.25;15.50;;;;;22.67;77.02;100876.91;4897861;29;45459;-53
2021/09/15 09:17:29;;;;;;;;;18.25;13.75;;;;;22.67;77.24;100883.13;4880008;29;45448;-53
2021/09/15 09:20:15;;;;;;;;;14.00;12.75;;;;;22.62;77.38;100877.41;4896378;28;45589;-52
2021/09/15 09:23:04;;;;;;;;;18.50;15.00;;;;;22.56;76.78;100876.22;4896201;29;46341;-52
2021/09/15 09:25:54;;;;;;;;;15.75;14.00;;;;;22.53;77.25;100881.94;4894215;29;45412;-51
2021/09/15 09:28:24;;;;;;;;;13.00;12.75;;;;;22.53;77.11;100879.25;4885776;29;45533;-52
2021/09/15 09:30:52;;;;;;;;;13.25;12.00;;;;;22.51;77.20;100881.25;4895448;29;45324;-52
2021/09/15 09:33:19;;;;;;;;;13.75;12.25;;;;;22.50;77.73;100879.56;4895945;29;45773;-52
2021/09/15 09:35:46;;;;;;;;;16.25;15.25;;;;;22.47;77.34;100890.63;4895063;29;45363;-53
2021/09/15 09:38:33;;;;;;;;;15.75;12.75;;;;;22.46;77.25;100886.28;4879299;29;45380;-56
2021/09/15 09:41:06;;;;;;;;;23.25;16.50;;;;;22.44;77.16;100888.28;4896215;29;45453;-52
2021/09/15 09:43:38;;;;;;;;;17.00;14.50;;;;;22.43;77.85;100883.91;4894391;29;46175;-53
2021/09/15 09:46:07;;;;;;;;;31.50;29.75;;;;;22.43;77.41;100891.13;4895608;29;45521;-53
2021/09/15 09:48:37;;;;;;;;;21.00;20.00;;;;;22.44;77.70;100890.16;4893938;29;45252;-54
2021/09/15 09:51:22;;;;;;;;;18.25;14.50;;;;;22.43;77.92;100886.59;4895533;29;45446;-54
2021/09/15 09:53:50;;;;;;;;;29.75;25.25;;;;;22.44;77.57;100879.41;4894332;29;45250;-54
2021/09/15 09:56:16;;;;;;;;;21.75;17.00;;;;;22.46;77.63;100882.75;4896469;29;45325;-60
2021/09/15 09:58:44;;;;;;;;;18.00;14.00;;;;;22.50;77.40;100886.78;4896206;29;45398;-60
2021/09/15 10:01:15;;;;;;;;;20.00;15.25;;;;;22.49;77.34;100894.00;4895581;29;45470;-48
2021/09/15 10:03:41;;;;;;;;;17.00;14.00;;;;;22.51;77.45;100892.00;4895423;29;46231;-45
2021/09/15 10:06:08;;;;;;;;;16.75;14.50;;;;;22.53;77.06;100889.16;4895194;29;45507;-46
2021/09/15 10:08:34;;;;;;;;;17.50;15.25;;;;;22.53;77.18;100890.00;4895649;29;45411;-44
2021/09/15 10:11:00;;;;;;;;;19.50;16.50;;;;;22.53;77.52;100891.84;4896558;29;45713;-53
2021/09/15 10:13:26;;;;;;;;;24.00;18.75;;;;;22.54;77.35;100885.47;4896527;29;46283;-57
2021/09/15 10:16:02;;;;;;;;;22.75;21.50;;;;;22.55;77.58;100884.44;4893241;29;45428;-61
2021/09/15 10:18:28;;;;;;;;;23.00;20.00;;;;;22.57;77.46;100888.63;4910324;29;45357;-59
2021/09/15 10:20:56;;;;;;;;;19.00;18.00;;;;;22.58;77.77;100886.78;4908828;29;45245;-61
2021/09/15 10:23:48;;;;;;;;;21.50;18.50;;;;;22.61;77.45;100891.00;4909665;29;45557;-58
2021/09/15 10:26:36;;;;;;;;;21.50;18.25;;;;;22.62;77.35;100884.63;4887422;29;45524;-51
2021/09/15 10:29:39;;;;;;;;;25.50;23.25;;;;;22.65;78.43;100889.66;4895661;29;45281;-59
2021/09/15 10:32:08;;;;;;;;;46.50;37.50;;;;;22.71;78.00;100892.53;4892704;29;45266;-59
2021/09/15 10:34:39;;;;;;;;;39.00;32.75;;;;;22.76;77.83;100900.94;4894893;29;45372;-59
2021/09/15 10:37:13;;;;;;;;;24.75;22.25;;;;;22.86;77.73;100894.59;4893989;29;45257;-59
2021/09/15 10:40:01;;;;;;;;;22.50;18.50;;;;;22.88;77.44;100889.88;4893436;29;45262;-58
2021/09/15 10:42:39;;;;;;;;;30.50;27.00;;;;;22.89;77.53;100894.25;4894803;29;45292;-58
2021/09/15 10:45:14;;;;;;;;;17.25;13.25;;;;;22.92;76.88;100892.09;4894476;29;45412;-51
2021/09/15 10:47:52;;;;;;;;;16.75;15.25;;;;;22.97;76.74;100891.56;4894883;29;45506;-57
2021/09/15 10:50:30;;;;;;;;;12.50;9.75;;;;;23.02;76.39;100902.66;4895144;29;45234;-55
2021/09/15 10:53:07;;;;;;;;;12.75;12.75;;;;;23.09;76.49;100903.66;4894740;29;45329;-50
2021/09/15 10:55:43;;;;;;;;;14.50;13.25;;;;;23.13;75.82;100892.41;4894488;29;45326;-55
2021/09/15 10:58:42;;;;;;;;;14.75;12.75;;;;;23.21;76.20;100904.16;4881037;29;45509;-59
2021/09/15 11:01:08;;;;;;;;;10.75;10.50;;;;;23.25;75.47;100900.97;4892917;29;45529;-57
2021/09/15 11:03:34;;;;;;;;;13.75;13.75;;;;;23.33;75.64;100902.81;4893973;29;45457;-57
2021/09/15 11:06:06;;;;;;;;;15.75;13.25;;;;;23.37;75.86;100898.75;4895199;29;46397;-59
2021/09/15 11:08:48;;;;;;;;;19.75;13.25;;;;;23.49;75.98;100908.16;4886011;29;45451;-59
2021/09/15 11:11:19;;;;;;;;;15.25;12.00;;;;;23.58;75.20;100901.75;4894476;29;45479;-58
2021/09/15 11:13:48;;;;;;;;;12.50;11.00;;;;;23.67;74.33;100905.28;4895766;29;45662;-58
2021/09/15 11:16:25;;;;;;;;;12.75;12.00;;;;;23.79;75.10;100901.25;4893469;29;45405;-56
2021/09/15 11:19:02;;;;;;;;;12.25;12.00;;;;;23.88;74.36;100908.28;4893788;29;45414;-59
2021/09/15 11:21:31;;;;;;;;;14.25;12.00;;;;;23.90;74.63;100906.22;4898054;28;45476;-58
2021/09/15 11:24:09;;;;;;;;;16.25;15.75;;;;;24.00;74.51;100911.41;4894956;29;45531;-59